Time;durP1;ratioP1;P1;durP2;ratioP2;P2;SDS_P1;SDS_P2;PMS_P1;PMS_P2;Temp;Humidity;BMP_temperature;BMP_pressure;BME280_temperature;BME280_humidity;BME280_pressure;Samples;Min_cycle;Max_cycle;Signal;HPM_P1;HPM_P2
2022/03/23 00:00:26;;;;;;;7.70;6.10;;;8.90;71.60;;;;;;5089397;28;20727;-74
2022/03/23 00:02:53;;;;;;;9.57;6.05;;;8.90;71.30;;;;;;5096466;28;20271;-72
2022/03/23 00:05:19;;;;;;;6.97;5.55;;;8.80;71.50;;;;;;5097941;28;20207;-71
2022/03/23 00:07:46;;;;;;;8.00;5.82;;;8.80;71.60;;;;;;5116028;27;20246;-72
2022/03/23 00:10:13;;;;;;;7.65;6.60;;;8.80;71.70;;;;;;5102759;28;20216;-72
2022/03/23 00:12:42;;;;;;;7.32;6.50;;;8.70;71.60;;;;;;5103265;27;20202;-73
2022/03/23 00:15:10;;;;;;;6.97;6.38;;;8.70;71.80;;;;;;5102877;27;20207;-72
2022/03/23 00:17:37;;;;;;;7.15;5.80;;;8.60;73.10;;;;;;5093595;27;20352;-73
2022/03/23 00:20:05;;;;;;;7.15;5.78;;;8.60;73.10;;;;;;5095204;27;20219;-73
2022/03/23 00:22:31;;;;;;;8.27;5.78;;;8.60;72.80;;;;;;5093704;27;20544;-73
2022/03/23 00:24:58;;;;;;;9.57;6.93;;;8.60;73.00;;;;;;5094176;27;20264;-71
2022/03/23 00:27:24;;;;;;;7.03;5.38;;;8.50;74.20;;;;;;5092488;27;20203;-72
2022/03/23 00:29:51;;;;;;;8.75;6.07;;;8.40;74.10;;;;;;5091477;27;20283;-73
2022/03/23 00:32:19;;;;;;;8.95;6.80;;;8.40;74.00;;;;;;5097025;27;20652;-72
2022/03/23 00:34:46;;;;;;;6.97;5.93;;;8.40;74.80;;;;;;5100564;28;20688;-72
2022/03/23 00:37:13;;;;;;;9.00;6.40;;;8.30;74.90;;;;;;5111262;27;20643;-71
2022/03/23 00:39:39;;;;;;;6.75;5.85;;;8.30;75.00;;;;;;5113307;28;20203;-72
2022/03/23 00:42:06;;;;;;;5.85;5.22;;;8.30;74.40;;;;;;5110085;28;20231;-72
2022/03/23 00:44:33;;;;;;;5.63;5.07;;;8.30;74.20;;;;;;5100288;28;20261;-71
2022/03/23 00:47:00;;;;;;;6.00;5.15;;;8.30;74.30;;;;;;5102184;27;20256;-71
2022/03/23 00:49:28;;;;;;;7.70;5.32;;;8.30;74.30;;;;;;5102912;28;20573;-72
2022/03/23 00:51:56;;;;;;;6.72;5.00;;;8.40;74.30;;;;;;5100317;28;20231;-71
2022/03/23 00:54:23;;;;;;;5.55;5.10;;;8.40;74.00;;;;;;5099869;28;20292;-73
2022/03/23 00:56:51;;;;;;;8.00;6.68;;;8.40;73.70;;;;;;5094638;28;20212;-73
2022/03/23 00:59:18;;;;;;;5.45;4.88;;;8.40;73.70;;;;;;5094338;27;20302;-71
2022/03/23 01:01:45;;;;;;;4.35;3.90;;;8.40;73.60;;;;;;5091574;28;20372;-72
2022/03/23 01:04:12;;;;;;;6.65;6.05;;;8.40;74.00;;;;;;5097246;28;20672;-72
2022/03/23 01:06:40;;;;;;;7.43;5.82;;;8.40;74.40;;;;;;5102281;27;20200;-73
2022/03/23 01:09:07;;;;;;;7.95;5.63;;;8.40;74.60;;;;;;5099927;27;20729;-72
2022/03/23 01:11:33;;;;;;;7.88;4.95;;;8.40;74.80;;;;;;5097968;28;20216;-73
2022/03/23 01:14:00;;;;;;;5.82;5.15;;;8.30;75.10;;;;;;5096458;28;20204;-73
2022/03/23 01:16:28;;;;;;;7.82;5.00;;;8.30;75.50;;;;;;5100763;28;20199;-72
2022/03/23 01:18:54;;;;;;;9.05;4.88;;;8.20;75.90;;;;;;5096068;27;20208;-73
2022/03/23 01:21:22;;;;;;;7.25;4.95;;;8.10;75.90;;;;;;5103662;27;20338;-73
2022/03/23 01:23:50;;;;;;;5.82;5.35;;;8.10;76.20;;;;;;5106378;27;20538;-72
2022/03/23 01:26:17;;;;;;;5.80;5.15;;;8.10;76.40;;;;;;5092225;27;20282;-73
2022/03/23 01:28:44;;;;;;;5.50;5.00;;;8.10;76.70;;;;;;5095176;28;20208;-71
2022/03/23 01:31:11;;;;;;;5.25;4.68;;;8.10;77.00;;;;;;5093373;28;20219;-73
2022/03/23 01:33:38;;;;;;;5.65;5.13;;;8.10;77.10;;;;;;5103009;28;20210;-72
2022/03/23 01:36:05;;;;;;;6.25;5.10;;;8.00;77.50;;;;;;5098556;28;21670;-72
2022/03/23 01:38:32;;;;;;;6.88;5.75;;;7.90;77.50;;;;;;5096433;27;20203;-72
2022/03/23 01:41:00;;;;;;;8.98;6.85;;;7.80;77.20;;;;;;5102703;28;20212;-71
2022/03/23 01:43:26;;;;;;;7.03;6.32;;;7.80;77.50;;;;;;5104850;27;20252;-71
2022/03/23 01:45:53;;;;;;;8.05;5.20;;;7.70;77.00;;;;;;5101330;28;20656;-73
2022/03/23 01:48:20;;;;;;;7.57;5.82;;;7.80;77.10;;;;;;5102332;28;20209;-73
2022/03/23 01:50:47;;;;;;;8.50;6.57;;;7.80;77.00;;;;;;5092007;28;20213;-73
2022/03/23 01:53:14;;;;;;;6.68;6.07;;;7.70;76.90;;;;;;5105639;28;20207;-73
2022/03/23 01:55:41;;;;;;;8.40;6.65;;;7.70;77.30;;;;;;5092964;27;20260;-73
2022/03/23 01:58:09;;;;;;;7.00;6.28;;;7.70;77.80;;;;;;5101717;27;20199;-72
2022/03/23 02:00:36;;;;;;;5.20;4.70;;;7.60;77.90;;;;;;5094339;27;20480;-73
2022/03/23 02:03:03;;;;;;;7.22;6.53;;;7.60;78.20;;;;;;5095401;28;20196;-72
2022/03/23 02:05:29;;;;;;;6.05;5.45;;;7.60;78.10;;;;;;5088924;27;20256;-72
2022/03/23 02:07:57;;;;;;;7.38;6.03;;;7.60;78.50;;;;;;5094074;28;20636;-73
2022/03/23 02:10:24;;;;;;;7.88;6.65;;;7.60;78.70;;;;;;5093570;27;20324;-72
2022/03/23 02:12:50;;;;;;;5.75;5.25;;;7.60;78.90;;;;;;5091820;28;20204;-73
2022/03/23 02:15:19;;;;;;;7.35;5.22;;;7.50;79.30;;;;;;5094406;28;20345;-72
2022/03/23 02:17:46;;;;;;;7.25;5.60;;;7.50;79.80;;;;;;5090710;27;20271;-73
2022/03/23 02:20:14;;;;;;;5.90;5.28;;;7.40;79.80;;;;;;5091641;28;20223;-73
2022/03/23 02:22:42;;;;;;;11.35;6.03;;;7.40;80.00;;;;;;5092078;28;20647;-72
2022/03/23 02:25:09;;;;;;;5.75;5.13;;;7.40;79.90;;;;;;5092531;27;20266;-73
2022/03/23 02:27:38;;;;;;;7.10;5.93;;;7.40;79.90;;;;;;5092989;28;21049;-73
2022/03/23 02:30:06;;;;;;;7.28;6.38;;;7.40;80.00;;;;;;5097951;28;20254;-73
2022/03/23 02:32:33;;;;;;;6.97;4.93;;;7.30;80.10;;;;;;5093416;28;20298;-72
2022/03/23 02:35:00;;;;;;;9.18;5.43;;;7.30;80.10;;;;;;5088172;27;20206;-72
2022/03/23 02:37:27;;;;;;;9.40;5.13;;;7.30;80.70;;;;;;5090275;28;20235;-73
2022/03/23 02:39:55;;;;;;;6.80;5.45;;;7.20;80.80;;;;;;5090140;28;20719;-71
2022/03/23 02:42:22;;;;;;;7.50;6.80;;;7.20;81.80;;;;;;5088790;28;20674;-73
2022/03/23 02:44:49;;;;;;;7.22;5.65;;;7.30;83.60;;;;;;5090183;28;20325;-73
2022/03/23 02:47:16;;;;;;;9.20;6.63;;;7.20;84.70;;;;;;5090532;28;20217;-72
2022/03/23 02:49:42;;;;;;;6.85;5.93;;;7.20;85.60;;;;;;5091871;28;20635;-72
2022/03/23 02:52:09;;;;;;;5.90;5.40;;;7.20;84.70;;;;;;5089163;28;20227;-74
2022/03/23 03:03:33;;;;;;;6.63;5.07;;;6.90;85.60;;;;;;5096294;28;20248;-71
2022/03/23 03:06:02;;;;;;;6.50;5.90;;;6.90;88.60;;;;;;5102502;28;20494;-71
2022/03/23 03:08:48;;;;;;;6.72;5.97;;;6.90;91.10;;;;;;5095890;27;20222;-73
2022/03/23 03:11:16;;;;;;;7.00;5.22;;;6.80;91.20;;;;;;5096556;28;20241;-72
2022/03/23 03:13:45;;;;;;;10.30;5.15;;;6.80;91.60;;;;;;5106410;28;20202;-71
2022/03/23 03:16:12;;;;;;;8.45;5.22;;;6.70;91.80;;;;;;5105707;28;20505;-71
2022/03/23 03:18:38;;;;;;;6.13;5.53;;;6.70;91.10;;;;;;5096815;28;20206;-73
2022/03/23 03:21:07;;;;;;;6.35;5.75;;;6.70;91.20;;;;;;5095985;28;20234;-73
2022/03/23 03:23:34;;;;;;;6.03;5.35;;;6.60;92.10;;;;;;5095717;28;20203;-72
2022/03/23 03:26:05;;;;;;;5.15;4.65;;;6.60;93.10;;;;;;5092012;28;20629;-72
2022/03/23 03:28:32;;;;;;;7.85;5.82;;;6.50;93.80;;;;;;5098762;28;20537;-72
2022/03/23 03:31:00;;;;;;;117.85;57.63;;;6.50;95.30;;;;;;5099670;28;20288;-73
2022/03/23 03:33:26;;;;;;;7.78;6.95;;;6.40;96.50;;;;;;5097915;28;20249;-72
2022/03/23 03:35:53;;;;;;;278.02;73.72;;;6.40;98.30;;;;;;5098596;28;20279;-73
2022/03/23 03:38:19;;;;;;;5.25;4.72;;;6.40;99.90;;;;;;5100806;28;20217;-72
2022/03/23 03:40:46;;;;;;;6.93;5.03;;;6.30;99.90;;;;;;5098288;28;20352;-73
2022/03/23 03:43:15;;;;;;;5.57;5.00;;;6.20;99.90;;;;;;5100134;27;20301;-71
2022/03/23 03:45:42;;;;;;;5.90;5.13;;;6.20;99.90;;;;;;5104307;27;20365;-74
2022/03/23 03:48:10;;;;;;;5.68;4.78;;;6.10;99.90;;;;;;5096937;28;20265;-73
2022/03/23 03:50:39;;;;;;;5.15;4.50;;;6.10;99.90;;;;;;5097658;27;20228;-73
2022/03/23 03:53:06;;;;;;;10.68;5.03;;;6.10;99.90;;;;;;5101795;27;20271;-71
2022/03/23 03:55:33;;;;;;;6.60;5.60;;;6.00;99.90;;;;;;5105003;27;20246;-73
2022/03/23 03:58:00;;;;;;;7.00;6.25;;;6.00;99.90;;;;;;5098588;27;20639;-72
2022/03/23 04:00:26;;;;;;;7.35;5.68;;;6.00;99.90;;;;;;5093382;28;20300;-73
2022/03/23 04:02:53;;;;;;;7.20;5.80;;;6.00;99.90;;;;;;5094651;28;20330;-71
2022/03/23 04:05:21;;;;;;;6.63;4.70;;;6.00;99.90;;;;;;5102617;27;20303;-73
2022/03/23 04:07:48;;;;;;;12.73;7.43;;;5.90;99.90;;;;;;5101825;27;20200;-72
2022/03/23 04:10:15;;;;;;;6.05;5.38;;;5.90;99.90;;;;;;5092557;27;20246;-73
2022/03/23 04:12:42;;;;;;;6.43;5.28;;;5.80;99.90;;;;;;5094416;27;20203;-72
2022/03/23 04:15:09;;;;;;;7.57;5.68;;;5.80;99.90;;;;;;5097117;28;20204;-73
2022/03/23 04:17:35;;;;;;;9.73;6.90;;;5.70;99.90;;;;;;5100280;27;20995;-71
2022/03/23 04:20:02;;;;;;;6.75;6.05;;;5.70;99.90;;;;;;5094535;27;20229;-72
2022/03/23 04:22:30;;;;;;;7.70;5.15;;;5.70;99.90;;;;;;5102488;27;20287;-72
2022/03/23 04:24:57;;;;;;;7.30;6.28;;;5.70;99.90;;;;;;5093249;27;20211;-72
2022/03/23 04:27:23;;;;;;;7.82;6.00;;;5.60;99.90;;;;;;5107780;27;20218;-72
2022/03/23 04:29:50;;;;;;;7.15;6.45;;;5.70;99.90;;;;;;5113655;28;20242;-72
2022/03/23 04:32:17;;;;;;;5.50;4.97;;;5.70;99.90;;;;;;5109301;28;20207;-72
2022/03/23 04:34:43;;;;;;;7.18;6.03;;;5.60;99.90;;;;;;5103814;28;20211;-72
2022/03/23 04:37:10;;;;;;;6.90;6.20;;;5.60;99.90;;;;;;5097689;27;20277;-72
2022/03/23 04:39:38;;;;;;;6.57;5.70;;;5.60;99.90;;;;;;5092601;27;20305;-72
2022/03/23 04:42:05;;;;;;;7.70;5.32;;;5.60;99.90;;;;;;5103906;27;20575;-72
2022/03/23 04:44:32;;;;;;;7.95;5.60;;;5.60;99.90;;;;;;5096337;27;20654;-72
2022/03/23 04:46:59;;;;;;;8.20;5.85;;;5.60;99.90;;;;;;5099425;27;20203;-72
2022/03/23 04:49:25;;;;;;;6.95;5.85;;;5.70;99.90;;;;;;5100191;27;20249;-72
2022/03/23 04:51:52;;;;;;;5.72;5.20;;;5.60;99.90;;;;;;5095641;27;20243;-72
2022/03/23 04:54:19;;;;;;;6.88;6.00;;;5.70;99.90;;;;;;5096964;28;20211;-72
2022/03/23 04:56:47;;;;;;;7.75;5.70;;;5.60;99.90;;;;;;5102654;27;20222;-72
2022/03/23 04:59:14;;;;;;;5.40;4.90;;;5.60;99.90;;;;;;5102856;28;20260;-72
2022/03/23 05:01:41;;;;;;;8.18;5.78;;;5.60;99.90;;;;;;5101677;28;20312;-72
2022/03/23 05:04:08;;;;;;;5.32;4.82;;;5.50;99.90;;;;;;5098271;27;20318;-73
2022/03/23 05:06:34;;;;;;;7.72;6.22;;;5.50;99.90;;;;;;5105527;28;20679;-71
2022/03/23 05:09:01;;;;;;;10.70;7.07;;;5.40;99.90;;;;;;5106307;27;20290;-73
2022/03/23 05:11:28;;;;;;;7.40;6.07;;;5.40;99.90;;;;;;5103393;28;20279;-71
2022/03/23 05:13:56;;;;;;;7.05;5.75;;;5.30;99.90;;;;;;5103911;27;20197;-73
2022/03/23 05:16:22;;;;;;;5.72;4.95;;;5.20;99.90;;;;;;5103003;28;20200;-72
2022/03/23 05:18:49;;;;;;;7.65;6.15;;;5.20;99.90;;;;;;5108629;28;20200;-73
2022/03/23 05:21:16;;;;;;;9.10;6.70;;;5.20;99.90;;;;;;5100080;28;20223;-72
2022/03/23 05:23:42;;;;;;;7.05;6.35;;;5.20;99.90;;;;;;5124701;28;20314;-72
2022/03/23 05:26:09;;;;;;;8.40;7.07;;;5.20;99.90;;;;;;5105539;27;20233;-72
2022/03/23 05:28:36;;;;;;;5.95;4.57;;;5.10;99.90;;;;;;5105351;28;20307;-73
2022/03/23 05:31:04;;;;;;;5.82;5.28;;;5.10;99.90;;;;;;5104300;28;20223;-72
2022/03/23 05:33:31;;;;;;;6.60;5.40;;;5.20;99.90;;;;;;5110272;27;20214;-72
2022/03/23 05:35:57;;;;;;;7.03;6.32;;;5.20;99.90;;;;;;5108582;28;20268;-72
2022/03/23 05:38:24;;;;;;;5.38;4.97;;;5.20;99.90;;;;;;5111579;28;20200;-75
2022/03/23 05:40:51;;;;;;;6.88;6.18;;;5.20;99.90;;;;;;5106021;28;20299;-78
2022/03/23 05:43:19;;;;;;;8.57;6.25;;;5.20;99.90;;;;;;5102182;28;20217;-77
2022/03/23 05:45:46;;;;;;;8.05;5.72;;;5.20;99.90;;;;;;5107144;28;20413;-76
2022/03/23 05:48:14;;;;;;;7.38;6.45;;;5.20;99.90;;;;;;5105899;28;20260;-76
2022/03/23 05:50:40;;;;;;;6.50;5.78;;;5.30;99.90;;;;;;5109939;28;20310;-77
2022/03/23 05:53:08;;;;;;;9.20;5.38;;;5.30;99.90;;;;;;5109618;28;20369;-77
2022/03/23 05:55:35;;;;;;;6.07;5.57;;;5.20;99.90;;;;;;5101621;28;20684;-77
2022/03/23 05:58:03;;;;;;;5.57;5.05;;;5.30;99.90;;;;;;5108824;28;20690;-76
2022/03/23 06:00:30;;;;;;;6.82;6.15;;;5.30;99.90;;;;;;5115250;28;20280;-76
2022/03/23 06:02:57;;;;;;;6.60;5.85;;;5.30;99.90;;;;;;5108144;28;20231;-76
2022/03/23 06:05:25;;;;;;;5.57;5.07;;;5.30;99.90;;;;;;5101218;28;20673;-77
2022/03/23 06:07:52;;;;;;;7.15;5.97;;;5.30;99.90;;;;;;5103985;28;20299;-77
2022/03/23 06:10:19;;;;;;;5.75;4.53;;;5.30;99.90;;;;;;5105238;27;20289;-77
2022/03/23 06:12:45;;;;;;;7.68;6.05;;;5.30;99.90;;;;;;5100641;27;20200;-77
2022/03/23 06:15:12;;;;;;;5.82;4.82;;;5.40;99.90;;;;;;5104497;28;20199;-78
2022/03/23 06:17:39;;;;;;;6.50;5.63;;;5.40;99.90;;;;;;5101505;27;20211;-75
2022/03/23 06:20:07;;;;;;;8.32;6.82;;;5.40;99.90;;;;;;5102648;27;20249;-77
2022/03/23 06:22:35;;;;;;;6.18;5.57;;;5.40;99.90;;;;;;5104920;28;20224;-75
2022/03/23 06:25:02;;;;;;;8.77;6.00;;;5.40;99.90;;;;;;5097205;28;20221;-76
2022/03/23 06:27:28;;;;;;;7.47;6.40;;;5.40;99.90;;;;;;5099783;28;20212;-76
2022/03/23 06:29:55;;;;;;;7.82;6.28;;;5.40;99.90;;;;;;5103956;28;20223;-77
2022/03/23 06:32:22;;;;;;;7.78;6.15;;;5.50;99.90;;;;;;5104579;28;20210;-77
2022/03/23 06:34:49;;;;;;;5.55;5.05;;;5.60;99.90;;;;;;5102105;28;20215;-77
2022/03/23 06:37:16;;;;;;;7.88;6.80;;;5.60;99.90;;;;;;5097042;28;20280;-76
2022/03/23 06:39:44;;;;;;;12.07;6.18;;;5.60;99.90;;;;;;5099858;28;20207;-77
2022/03/23 06:42:11;;;;;;;12.68;7.00;;;5.70;99.90;;;;;;5099776;28;20219;-77
2022/03/23 06:44:38;;;;;;;6.75;4.80;;;5.70;99.90;;;;;;5099801;28;20218;-77
2022/03/23 06:47:05;;;;;;;7.88;6.35;;;5.80;99.90;;;;;;5105006;28;20283;-75
2022/03/23 06:49:32;;;;;;;6.95;6.05;;;5.80;99.90;;;;;;5092982;28;20245;-75
2022/03/23 06:51:59;;;;;;;10.00;6.28;;;5.90;99.90;;;;;;5104871;28;20240;-76
2022/03/23 06:54:25;;;;;;;10.70;6.15;;;6.00;99.90;;;;;;5105845;28;20236;-75
2022/03/23 06:56:54;;;;;;;8.65;6.78;;;6.00;99.90;;;;;;5105577;28;20207;-75
2022/03/23 06:59:21;;;;;;;7.18;6.50;;;6.10;99.90;;;;;;5105277;28;20213;-76
2022/03/23 07:01:48;;;;;;;8.77;5.55;;;6.20;99.90;;;;;;5101962;28;20231;-77
2022/03/23 07:04:15;;;;;;;12.25;6.75;;;6.30;99.90;;;;;;5103149;28;20226;-77
2022/03/23 07:06:41;;;;;;;9.48;7.28;;;6.40;99.90;;;;;;5106074;28;20240;-76
2022/03/23 07:11:54;;;;;;;9.07;6.70;;;6.60;99.90;;;;;;5103743;28;20206;-75
2022/03/23 07:14:21;;;;;;;7.28;6.50;;;6.70;99.90;;;;;;5110176;28;20203;-76
2022/03/23 07:16:47;;;;;;;10.52;6.43;;;6.80;99.90;;;;;;5108714;28;20215;-75
2022/03/23 07:19:14;;;;;;;7.30;6.20;;;6.90;99.90;;;;;;5102480;28;20465;-77
2022/03/23 07:21:41;;;;;;;7.78;7.00;;;7.00;99.90;;;;;;5102743;28;20232;-75
2022/03/23 07:24:08;;;;;;;9.55;7.35;;;7.10;99.90;;;;;;5104486;28;20233;-75
2022/03/23 07:26:34;;;;;;;10.20;7.13;;;7.20;99.90;;;;;;5101586;28;20195;-77
2022/03/23 07:29:03;;;;;;;6.90;5.50;;;7.40;99.90;;;;;;5100922;28;20203;-77
2022/03/23 07:31:30;;;;;;;7.53;6.75;;;7.40;99.90;;;;;;5100569;28;20241;-77
2022/03/23 07:33:57;;;;;;;7.43;5.88;;;7.60;99.90;;;;;;5101677;28;20276;-76
2022/03/23 07:36:24;;;;;;;8.15;7.35;;;7.70;99.90;;;;;;5111865;28;20303;-70
2022/03/23 07:38:51;;;;;;;8.23;6.93;;;7.80;99.90;;;;;;5106091;28;20210;-75
2022/03/23 07:41:18;;;;;;;14.02;7.45;;;7.90;99.90;;;;;;5095797;28;20220;-75
2022/03/23 07:43:45;;;;;;;7.85;6.60;;;8.00;99.90;;;;;;5094849;28;20220;-75
2022/03/23 07:46:14;;;;;;;11.75;6.45;;;8.20;99.90;;;;;;5099068;28;20235;-75
2022/03/23 07:48:40;;;;;;;10.20;7.13;;;8.30;99.90;;;;;;5099682;28;20554;-75
2022/03/23 07:51:07;;;;;;;8.20;6.47;;;8.40;99.90;;;;;;5100978;28;20278;-74
2022/03/23 07:53:34;;;;;;;12.50;7.50;;;8.50;99.90;;;;;;5098180;28;20534;-75
2022/03/23 07:56:01;;;;;;;8.98;7.22;;;8.70;99.90;;;;;;5092379;28;20303;-74
2022/03/23 07:58:28;;;;;;;7.90;6.57;;;8.80;99.90;;;;;;5103034;28;20211;-74
2022/03/23 08:00:56;;;;;;;10.95;7.57;;;9.00;99.90;;;;;;5105138;28;20215;-74
2022/03/23 08:03:24;;;;;;;10.82;8.38;;;9.10;99.90;;;;;;5100718;28;20223;-76
2022/03/23 08:05:50;;;;;;;8.60;7.03;;;9.30;99.90;;;;;;5103703;28;20533;-75
2022/03/23 08:08:17;;;;;;;8.93;8.00;;;9.40;99.90;;;;;;5098351;28;20467;-74
2022/03/23 08:10:44;;;;;;;10.90;8.17;;;9.60;99.90;;;;;;5104537;28;20551;-74
2022/03/23 08:13:12;;;;;;;11.87;7.73;;;9.80;99.90;;;;;;5098000;28;20565;-74
2022/03/23 08:15:40;;;;;;;9.37;7.00;;;10.00;99.90;;;;;;5104708;28;20464;-74
2022/03/23 08:18:07;;;;;;;10.93;7.73;;;10.20;99.90;;;;;;5101049;28;20510;-74
2022/03/23 08:20:36;;;;;;;13.60;8.37;;;10.40;99.90;;;;;;5104693;28;20472;-74
2022/03/23 08:23:04;;;;;;;9.43;8.47;;;10.50;99.90;;;;;;5103872;28;20545;-75
2022/03/23 08:25:32;;;;;;;11.90;7.87;;;10.60;99.90;;;;;;5095820;28;20498;-74
2022/03/23 08:27:59;;;;;;;9.10;7.10;;;10.90;99.90;;;;;;5093844;28;20488;-74
2022/03/23 08:30:27;;;;;;;9.33;8.40;;;11.10;99.90;;;;;;5101834;28;20570;-75
2022/03/23 08:32:54;;;;;;;9.40;7.23;;;11.30;99.90;;;;;;5104774;28;20457;-75
2022/03/23 08:35:20;;;;;;;9.00;6.67;;;11.40;99.90;;;;;;5108239;28;20474;-75
2022/03/23 08:37:49;;;;;;;10.90;7.30;;;11.50;99.90;;;;;;5108248;28;20449;-76
2022/03/23 08:40:15;;;;;;;7.90;7.10;;;11.60;99.90;;;;;;5097471;28;20505;-74
2022/03/23 08:42:42;;;;;;;8.43;7.00;;;11.70;99.90;;;;;;5106943;28;20941;-76
2022/03/23 08:45:10;;;;;;;9.90;8.30;;;11.90;99.90;;;;;;5105848;28;20975;-76
2022/03/23 08:47:38;;;;;;;11.97;8.43;;;12.20;99.90;;;;;;5102168;28;20450;-76
2022/03/23 08:50:07;;;;;;;13.57;7.93;;;12.30;99.90;;;;;;5106812;28;21166;-75
2022/03/23 08:52:34;;;;;;;10.43;7.80;;;12.50;99.90;;;;;;5100528;28;20495;-76
2022/03/23 08:55:02;;;;;;;12.03;7.80;;;12.70;99.90;;;;;;5106337;28;20494;-75
2022/03/23 08:57:29;;;;;;;11.83;9.00;;;12.80;99.90;;;;;;5105882;28;20441;-76
2022/03/23 08:59:55;;;;;;;11.07;8.23;;;12.90;99.90;;;;;;5095639;28;20531;-74
2022/03/23 09:02:22;;;;;;;11.13;8.70;;;13.20;99.60;;;;;;5099159;28;20507;-75
2022/03/23 09:04:49;;;;;;;8.70;7.63;;;13.40;99.20;;;;;;5099415;28;20521;-74
2022/03/23 09:07:16;;;;;;;11.60;9.30;;;13.50;99.10;;;;;;5106194;28;20445;-75
2022/03/23 09:09:42;;;;;;;9.13;8.00;;;13.60;98.80;;;;;;5120588;28;20421;-75
2022/03/23 09:12:11;;;;;;;12.20;8.43;;;13.80;98.20;;;;;;5104640;28;20612;-76
2022/03/23 09:14:39;;;;;;;15.90;8.37;;;13.80;98.10;;;;;;5101722;28;20560;-75
2022/03/23 09:17:06;;;;;;;12.60;8.93;;;14.00;98.20;;;;;;5104725;28;20828;-76
2022/03/23 09:19:33;;;;;;;9.10;8.17;;;14.20;97.60;;;;;;5107531;28;20479;-74
2022/03/23 09:22:00;;;;;;;11.60;8.63;;;14.30;97.80;;;;;;5103226;28;20542;-74
2022/03/23 09:24:27;;;;;;;12.30;8.40;;;14.50;97.40;;;;;;5102051;28;20520;-75
2022/03/23 09:26:55;;;;;;;11.37;8.20;;;14.70;97.40;;;;;;5105127;28;20445;-75
2022/03/23 09:29:23;;;;;;;11.40;8.73;;;15.00;97.10;;;;;;5106476;28;20524;-76
2022/03/23 09:31:50;;;;;;;10.37;8.80;;;15.30;96.40;;;;;;5104260;28;20473;-76
2022/03/23 09:34:17;;;;;;;10.10;8.80;;;15.50;96.30;;;;;;5104439;28;20903;-72
2022/03/23 09:39:28;;;;;;;11.93;9.20;;;16.00;95.80;;;;;;5103377;28;20460;-68
2022/03/23 09:41:58;;;;;;;14.27;8.97;;;16.30;93.80;;;;;;5103423;28;21115;-74
2022/03/23 09:44:28;;;;;;;14.17;8.63;;;16.60;93.70;;;;;;5106183;28;20477;-70
2022/03/23 09:46:55;;;;;;;9.73;8.77;;;16.80;93.20;;;;;;5106813;28;20461;-74
2022/03/23 09:49:23;;;;;;;13.00;10.10;;;17.00;91.50;;;;;;5096960;28;20461;-73
2022/03/23 09:51:52;;;;;;;11.73;9.47;;;17.20;91.40;;;;;;5106528;28;20485;-71
2022/03/23 09:54:19;;;;;;;11.03;8.83;;;17.40;89.70;;;;;;5107666;28;20461;-72
2022/03/23 09:56:45;;;;;;;12.90;8.67;;;17.60;87.90;;;;;;5107281;28;20528;-72
2022/03/23 09:59:12;;;;;;;11.97;8.80;;;17.70;87.60;;;;;;5106372;28;20445;-71
2022/03/23 10:02:28;;;;;;;11.60;9.60;;;17.90;85.30;;;;;;5106967;28;20530;-73
2022/03/23 10:05:35;;;;;;;9.93;8.20;;;18.10;84.10;;;;;;5099257;28;20600;-72
2022/03/23 10:08:25;;;;;;;10.70;8.60;;;17.90;82.70;;;;;;5104807;28;20468;-72
2022/03/23 10:11:41;;;;;;;10.77;8.77;;;18.10;84.10;;;;;;5095304;28;20959;-71
2022/03/23 10:14:49;;;;;;;11.73;9.10;;;18.30;81.80;;;;;;5103677;28;20483;-72
2022/03/23 10:17:49;;;;;;;14.33;8.30;;;18.60;81.00;;;;;;5070335;28;20502;-72
2022/03/23 10:20:16;;;;;;;11.50;9.23;;;18.90;77.50;;;;;;5097987;28;20958;-72
2022/03/23 10:22:48;;;;;;;12.97;9.90;;;19.20;79.00;;;;;;5103596;28;20465;-71
2022/03/23 10:25:15;;;;;;;9.93;8.53;;;19.40;76.70;;;;;;5099787;28;20878;-72
2022/03/23 10:27:43;;;;;;;11.63;8.87;;;19.60;72.70;;;;;;5106309;28;20502;-71
2022/03/23 10:30:10;;;;;;;12.83;9.27;;;19.50;70.20;;;;;;5093684;28;20527;-72
2022/03/23 10:32:38;;;;;;;10.63;9.37;;;19.60;71.90;;;;;;5101162;28;20459;-71
2022/03/23 10:35:12;;;;;;;10.90;8.33;;;19.50;72.20;;;;;;5107274;28;20843;-71
2022/03/23 10:37:38;;;;;;;12.13;8.93;;;19.40;74.20;;;;;;5095803;28;21013;-71
2022/03/23 10:40:09;;;;;;;13.20;9.90;;;19.60;73.10;;;;;;5115299;28;20852;-71
2022/03/23 10:42:38;;;;;;;12.40;8.57;;;19.60;73.50;;;;;;5106897;28;20509;-71
2022/03/23 10:45:09;;;;;;;10.37;8.63;;;19.50;72.40;;;;;;5103549;28;20492;-71
2022/03/23 10:47:37;;;;;;;9.13;8.20;;;19.60;71.40;;;;;;5100434;28;20544;-71
2022/03/23 10:50:10;;;;;;;11.30;7.80;;;19.80;71.20;;;;;;5104059;28;20981;-71
2022/03/23 10:52:47;;;;;;;11.83;9.33;;;20.00;70.90;;;;;;5107081;28;20464;-71
2022/03/23 10:55:16;;;;;;;13.63;9.63;;;20.40;71.80;;;;;;5105429;28;20480;-73
2022/03/23 10:58:08;;;;;;;11.60;8.20;;;20.60;70.60;;;;;;5098654;28;20445;-71
2022/03/23 11:00:37;;;;;;;12.73;9.50;;;20.70;70.60;;;;;;5099004;28;20477;-71
2022/03/23 11:03:05;;;;;;;11.70;9.60;;;21.00;69.80;;;;;;5096879;28;20456;-74
2022/03/23 11:05:33;;;;;;;10.20;9.10;;;21.20;69.40;;;;;;5099752;28;20507;-74
2022/03/23 11:08:08;;;;;;;10.77;8.80;;;21.50;77.00;;;;;;5103286;28;20529;-70
2022/03/23 11:16:07;;;;;;;8.93;8.00;;;21.90;66.80;;;;;;5102894;28;20458;-71
2022/03/23 11:18:34;;;;;;;12.67;8.17;;;22.00;69.20;;;;;;5104002;28;20448;-70
2022/03/23 11:21:01;;;;;;;10.27;6.97;;;22.00;70.50;;;;;;5100443;28;20477;-69
2022/03/23 11:23:30;;;;;;;8.60;7.70;;;22.20;70.50;;;;;;5099432;28;20493;-70
2022/03/23 11:26:00;;;;;;;10.00;8.40;;;22.50;62.80;;;;;;5098622;28;20445;-71
2022/03/23 11:28:29;;;;;;;12.77;8.67;;;22.70;63.20;;;;;;5103498;28;20452;-71
2022/03/23 11:30:56;;;;;;;9.17;8.07;;;22.90;67.60;;;;;;5104431;28;20472;-71
2022/03/23 11:33:25;;;;;;;9.50;7.50;;;23.20;61.40;;;;;;5103612;28;20445;-71
2022/03/23 11:35:55;;;;;;;8.70;7.60;;;23.60;62.40;;;;;;5106376;28;21020;-70
2022/03/23 11:38:25;;;;;;;8.37;7.50;;;24.00;62.50;;;;;;5115534;28;20444;-71
2022/03/23 11:40:53;;;;;;;11.37;8.43;;;24.50;61.70;;;;;;5114919;28;20473;-71
2022/03/23 11:43:26;;;;;;;8.50;6.87;;;24.90;61.00;;;;;;5104605;28;20445;-72
2022/03/23 11:45:55;;;;;;;10.70;8.83;;;25.40;61.40;;;;;;5097523;28;20449;-70
2022/03/23 11:48:57;;;;;;;11.50;8.87;;;25.80;61.00;;;;;;5103130;28;20457;-72
2022/03/23 11:51:38;;;;;;;8.52;7.72;;;26.50;60.60;;;;;;5102105;28;20465;-71
2022/03/23 11:54:12;;;;;;;9.27;8.37;;;27.30;58.10;;;;;;5108815;28;20657;-73
2022/03/23 11:56:50;;;;;;;13.03;8.80;;;27.60;55.80;;;;;;5101027;28;20453;-75
2022/03/23 11:59:22;;;;;;;12.23;8.40;;;28.00;56.00;;;;;;5100836;28;20927;-74
2022/03/23 12:01:51;;;;;;;10.53;8.10;;;28.70;55.00;;;;;;5095751;28;20462;-71
2022/03/23 12:04:20;;;;;;;9.93;8.53;;;29.60;52.30;;;;;;5107684;28;20481;-71
2022/03/23 12:06:47;;;;;;;8.37;7.57;;;30.10;51.80;;;;;;5098887;28;20584;-72
2022/03/23 12:09:33;;;;;;;10.93;8.37;;;30.90;51.40;;;;;;5102814;28;20719;-72
2022/03/23 12:12:00;;;;;;;9.50;8.30;;;31.30;47.40;;;;;;5100057;28;20941;-72
2022/03/23 12:14:30;;;;;;;9.00;8.10;;;31.60;48.20;;;;;;5106528;28;20437;-72
2022/03/23 12:17:05;;;;;;;9.60;8.00;;;31.90;46.90;;;;;;5105058;28;20512;-73
2022/03/23 12:19:33;;;;;;;9.93;7.60;;;32.00;44.70;;;;;;5094277;28;20513;-74
2022/03/23 12:22:14;;;;;;;8.63;7.73;;;32.60;44.70;;;;;;5099989;28;20470;-73
2022/03/23 12:24:53;;;;;;;9.43;8.53;;;33.10;42.70;;;;;;5103872;28;21142;-73
2022/03/23 12:27:31;;;;;;;8.10;7.23;;;32.60;42.10;;;;;;5106967;28;20605;-73
2022/03/23 12:30:02;;;;;;;8.03;7.27;;;32.40;42.20;;;;;;5105094;28;20817;-73
2022/03/23 12:32:36;;;;;;;8.67;7.87;;;32.40;43.00;;;;;;5107023;28;20588;-73
2022/03/23 12:35:03;;;;;;;9.07;7.40;;;32.80;42.10;;;;;;5104328;28;20479;-72
2022/03/23 12:37:38;;;;;;;11.03;8.40;;;33.10;41.00;;;;;;5106633;28;20863;-71
2022/03/23 12:40:08;;;;;;;8.90;7.53;;;33.70;39.40;;;;;;5092264;28;20513;-73
2022/03/23 12:42:35;;;;;;;7.97;7.27;;;34.20;40.20;;;;;;5102225;28;20563;-73
2022/03/23 12:45:07;;;;;;;9.33;8.47;;;34.10;41.00;;;;;;5106641;28;20514;-73
2022/03/23 12:47:35;;;;;;;7.90;6.83;;;34.60;37.60;;;;;;5102352;28;20453;-73
2022/03/23 12:58:35;;;;;;;6.40;5.80;;;35.00;38.80;;;;;;5105694;28;20955;-72
2022/03/23 13:01:14;;;;;;;6.97;6.10;;;35.30;39.00;;;;;;5096251;28;20522;-72
2022/03/23 13:04:02;;;;;;;7.63;6.97;;;35.40;37.60;;;;;;5104216;28;20490;-72
2022/03/23 13:06:35;;;;;;;8.37;6.50;;;35.40;36.10;;;;;;5105258;28;20484;-72
2022/03/23 13:09:03;;;;;;;6.90;6.30;;;35.10;35.00;;;;;;5105108;28;20941;-70
2022/03/23 13:11:32;;;;;;;7.10;6.50;;;34.90;35.30;;;;;;5104623;28;20491;-69
2022/03/23 13:14:00;;;;;;;8.03;7.10;;;34.60;35.40;;;;;;5097541;28;20536;-72
2022/03/23 13:16:30;;;;;;;8.53;7.73;;;34.70;36.20;;;;;;5099868;28;20442;-74
2022/03/23 13:18:58;;;;;;;6.37;5.70;;;33.80;35.00;;;;;;5101326;28;20419;-73
2022/03/23 13:21:28;;;;;;;7.37;5.67;;;34.10;35.00;;;;;;5097978;28;20468;-73
2022/03/23 13:23:58;;;;;;;4.90;4.50;;;33.80;36.20;;;;;;5102360;28;20927;-73
2022/03/23 13:26:26;;;;;;;4.77;4.27;;;34.10;35.80;;;;;;5094731;28;20470;-73